sensor_id;sensor_type;location;lat;lon;timestamp;P1;durP1;ratioP1;P2;durP2;ratioP2
5787;SDS011;2920;48.158;12.254;2024-03-22T00:01:48;16.05;;;11.00;;
5787;SDS011;2920;48.158;12.254;2024-03-22T00:04:15;16.48;;;9.90;;
5787;SDS011;2920;48.158;12.254;2024-03-22T00:06:41;19.63;;;11.27;;
5787;SDS011;2920;48.158;12.254;2024-03-22T00:09:07;18.80;;;11.45;;
5787;SDS011;2920;48.158;12.254;2024-03-22T00:11:32;18.73;;;11.60;;
5787;SDS011;2920;48.158;12.254;2024-03-22T00:13:57;21.10;;;12.20;;
5787;SDS011;2920;48.158;12.254;2024-03-22T00:16:23;23.10;;;12.70;;
5787;SDS011;2920;48.158;12.254;2024-03-22T00:18:48;18.65;;;11.13;;
5787;SDS011;2920;48.158;12.254;2024-03-22T00:21:13;17.30;;;10.60;;
5787;SDS011;2920;48.158;12.254;2024-03-22T00:23:39;19.20;;;11.07;;
5787;SDS011;2920;48.158;12.254;2024-03-22T00:26:04;16.52;;;11.45;;
5787;SDS011;2920;48.158;12.254;2024-03-22T00:28:29;18.58;;;11.90;;
5787;SDS011;2920;48.158;12.254;2024-03-22T00:30:55;22.25;;;12.02;;
5787;SDS011;2920;48.158;12.254;2024-03-22T00:33:20;19.48;;;12.52;;
5787;SDS011;2920;48.158;12.254;2024-03-22T00:35:45;20.83;;;13.40;;
5787;SDS011;2920;48.158;12.254;2024-03-22T00:38:11;19.65;;;11.85;;
5787;SDS011;2920;48.158;12.254;2024-03-22T00:40:36;17.83;;;11.27;;
5787;SDS011;2920;48.158;12.254;2024-03-22T00:43:01;23.00;;;12.02;;
5787;SDS011;2920;48.158;12.254;2024-03-22T00:45:27;18.08;;;11.18;;
5787;SDS011;2920;48.158;12.254;2024-03-22T00:47:52;19.33;;;11.52;;
5787;SDS011;2920;48.158;12.254;2024-03-22T00:50:18;19.15;;;12.23;;
5787;SDS011;2920;48.158;12.254;2024-03-22T00:52:43;18.38;;;11.68;;
5787;SDS011;2920;48.158;12.254;2024-03-22T00:55:09;18.95;;;11.98;;
5787;SDS011;2920;48.158;12.254;2024-03-22T00:57:34;19.58;;;11.57;;
5787;SDS011;2920;48.158;12.254;2024-03-22T00:59:59;18.52;;;10.85;;
5787;SDS011;2920;48.158;12.254;2024-03-22T01:02:25;16.52;;;11.00;;
5787;SDS011;2920;48.158;12.254;2024-03-22T01:04:50;16.92;;;11.25;;
5787;SDS011;2920;48.158;12.254;2024-03-22T01:07:15;17.65;;;11.48;;
5787;SDS011;2920;48.158;12.254;2024-03-22T01:09:41;18.83;;;11.27;;
5787;SDS011;2920;48.158;12.254;2024-03-22T01:12:09;19.40;;;11.38;;
5787;SDS011;2920;48.158;12.254;2024-03-22T01:14:34;18.58;;;11.10;;
5787;SDS011;2920;48.158;12.254;2024-03-22T01:16:59;27.17;;;11.90;;
5787;SDS011;2920;48.158;12.254;2024-03-22T01:19:25;17.30;;;10.35;;
5787;SDS011;2920;48.158;12.254;2024-03-22T01:21:50;17.77;;;11.32;;
5787;SDS011;2920;48.158;12.254;2024-03-22T01:24:15;16.23;;;10.65;;
5787;SDS011;2920;48.158;12.254;2024-03-22T01:26:41;18.08;;;10.75;;
5787;SDS011;2920;48.158;12.254;2024-03-22T01:29:06;20.05;;;11.07;;
5787;SDS011;2920;48.158;12.254;2024-03-22T01:31:31;18.52;;;10.60;;
5787;SDS011;2920;48.158;12.254;2024-03-22T01:33:57;18.00;;;10.70;;
5787;SDS011;2920;48.158;12.254;2024-03-22T01:36:22;19.15;;;10.88;;
5787;SDS011;2920;48.158;12.254;2024-03-22T01:38:47;16.45;;;10.32;;
5787;SDS011;2920;48.158;12.254;2024-03-22T01:41:13;14.50;;;9.55;;
5787;SDS011;2920;48.158;12.254;2024-03-22T01:43:38;13.68;;;9.40;;
5787;SDS011;2920;48.158;12.254;2024-03-22T01:46:04;12.80;;;8.98;;
5787;SDS011;2920;48.158;12.254;2024-03-22T01:48:29;15.15;;;10.45;;
5787;SDS011;2920;48.158;12.254;2024-03-22T01:50:54;18.73;;;10.75;;
5787;SDS011;2920;48.158;12.254;2024-03-22T01:53:20;24.52;;;11.15;;
5787;SDS011;2920;48.158;12.254;2024-03-22T01:55:46;15.85;;;11.10;;
5787;SDS011;2920;48.158;12.254;2024-03-22T01:58:12;16.30;;;10.82;;
5787;SDS011;2920;48.158;12.254;2024-03-22T02:00:37;15.15;;;9.55;;
5787;SDS011;2920;48.158;12.254;2024-03-22T02:03:03;17.55;;;10.43;;
5787;SDS011;2920;48.158;12.254;2024-03-22T02:05:29;18.48;;;10.55;;
5787;SDS011;2920;48.158;12.254;2024-03-22T02:07:54;15.68;;;10.25;;
5787;SDS011;2920;48.158;12.254;2024-03-22T02:10:20;16.38;;;10.23;;
5787;SDS011;2920;48.158;12.254;2024-03-22T02:12:45;16.80;;;10.45;;
5787;SDS011;2920;48.158;12.254;2024-03-22T02:15:11;17.40;;;10.32;;
5787;SDS011;2920;48.158;12.254;2024-03-22T02:17:36;49.38;;;13.52;;
5787;SDS011;2920;48.158;12.254;2024-03-22T02:20:01;18.25;;;10.75;;
5787;SDS011;2920;48.158;12.254;2024-03-22T02:22:28;32.90;;;12.15;;
5787;SDS011;2920;48.158;12.254;2024-03-22T02:24:53;16.48;;;10.73;;
5787;SDS011;2920;48.158;12.254;2024-03-22T02:27:19;20.55;;;11.35;;
5787;SDS011;2920;48.158;12.254;2024-03-22T02:29:44;17.45;;;10.45;;
5787;SDS011;2920;48.158;12.254;2024-03-22T02:32:09;38.88;;;12.18;;
5787;SDS011;2920;48.158;12.254;2024-03-22T02:34:35;24.75;;;12.35;;
5787;SDS011;2920;48.158;12.254;2024-03-22T02:37:00;23.85;;;11.48;;
5787;SDS011;2920;48.158;12.254;2024-03-22T02:39:26;40.28;;;13.32;;
5787;SDS011;2920;48.158;12.254;2024-03-22T02:41:51;31.30;;;12.90;;
5787;SDS011;2920;48.158;12.254;2024-03-22T02:44:16;23.83;;;11.40;;
5787;SDS011;2920;48.158;12.254;2024-03-22T02:46:42;19.08;;;11.55;;
5787;SDS011;2920;48.158;12.254;2024-03-22T02:49:07;19.13;;;10.90;;
5787;SDS011;2920;48.158;12.254;2024-03-22T02:51:32;18.83;;;11.82;;
5787;SDS011;2920;48.158;12.254;2024-03-22T02:53:58;29.92;;;11.18;;
5787;SDS011;2920;48.158;12.254;2024-03-22T02:56:24;30.17;;;12.88;;
5787;SDS011;2920;48.158;12.254;2024-03-22T02:58:49;18.77;;;11.38;;
5787;SDS011;2920;48.158;12.254;2024-03-22T03:01:15;28.80;;;12.40;;
5787;SDS011;2920;48.158;12.254;2024-03-22T03:03:40;18.52;;;11.48;;
5787;SDS011;2920;48.158;12.254;2024-03-22T03:06:05;23.75;;;12.15;;
5787;SDS011;2920;48.158;12.254;2024-03-22T03:08:31;23.17;;;12.95;;
5787;SDS011;2920;48.158;12.254;2024-03-22T03:10:56;18.45;;;11.43;;
5787;SDS011;2920;48.158;12.254;2024-03-22T03:13:21;24.67;;;12.60;;
5787;SDS011;2920;48.158;12.254;2024-03-22T03:15:46;22.60;;;12.13;;
5787;SDS011;2920;48.158;12.254;2024-03-22T03:18:12;22.80;;;11.65;;
5787;SDS011;2920;48.158;12.254;2024-03-22T03:20:37;21.25;;;12.82;;
5787;SDS011;2920;48.158;12.254;2024-03-22T03:23:03;18.70;;;11.23;;
5787;SDS011;2920;48.158;12.254;2024-03-22T03:25:28;23.83;;;12.48;;
5787;SDS011;2920;48.158;12.254;2024-03-22T03:27:53;21.33;;;13.05;;
5787;SDS011;2920;48.158;12.254;2024-03-22T03:30:19;22.58;;;11.77;;
5787;SDS011;2920;48.158;12.254;2024-03-22T03:32:44;19.13;;;11.40;;
5787;SDS011;2920;48.158;12.254;2024-03-22T03:35:09;19.15;;;12.25;;
5787;SDS011;2920;48.158;12.254;2024-03-22T03:37:35;21.92;;;13.23;;
5787;SDS011;2920;48.158;12.254;2024-03-22T03:40:00;19.33;;;12.05;;
5787;SDS011;2920;48.158;12.254;2024-03-22T03:42:26;24.45;;;11.95;;
5787;SDS011;2920;48.158;12.254;2024-03-22T03:44:51;18.95;;;11.57;;
5787;SDS011;2920;48.158;12.254;2024-03-22T03:47:17;41.60;;;12.00;;
5787;SDS011;2920;48.158;12.254;2024-03-22T03:49:42;18.05;;;10.82;;
5787;SDS011;2920;48.158;12.254;2024-03-22T03:52:07;20.85;;;11.40;;
5787;SDS011;2920;48.158;12.254;2024-03-22T03:54:32;25.08;;;11.65;;
5787;SDS011;2920;48.158;12.254;2024-03-22T03:56:58;25.17;;;11.32;;
5787;SDS011;2920;48.158;12.254;2024-03-22T03:59:23;14.30;;;9.98;;
5787;SDS011;2920;48.158;12.254;2024-03-22T04:01:49;16.70;;;10.27;;
5787;SDS011;2920;48.158;12.254;2024-03-22T04:04:14;16.70;;;10.40;;
5787;SDS011;2920;48.158;12.254;2024-03-22T04:06:40;17.15;;;10.05;;
5787;SDS011;2920;48.158;12.254;2024-03-22T04:09:05;17.13;;;9.70;;
5787;SDS011;2920;48.158;12.254;2024-03-22T04:11:30;15.82;;;10.68;;
5787;SDS011;2920;48.158;12.254;2024-03-22T04:13:56;17.58;;;10.50;;
5787;SDS011;2920;48.158;12.254;2024-03-22T04:16:21;15.63;;;9.73;;
5787;SDS011;2920;48.158;12.254;2024-03-22T04:18:46;15.48;;;9.77;;
5787;SDS011;2920;48.158;12.254;2024-03-22T04:21:12;15.00;;;9.60;;
5787;SDS011;2920;48.158;12.254;2024-03-22T04:23:37;15.18;;;8.80;;
5787;SDS011;2920;48.158;12.254;2024-03-22T04:26:02;15.48;;;9.18;;
5787;SDS011;2920;48.158;12.254;2024-03-22T04:28:28;13.85;;;8.75;;
5787;SDS011;2920;48.158;12.254;2024-03-22T04:30:55;15.82;;;8.98;;
5787;SDS011;2920;48.158;12.254;2024-03-22T04:33:28;13.25;;;9.20;;
5787;SDS011;2920;48.158;12.254;2024-03-22T04:35:54;14.65;;;8.95;;
5787;SDS011;2920;48.158;12.254;2024-03-22T04:38:20;15.30;;;8.93;;
5787;SDS011;2920;48.158;12.254;2024-03-22T04:40:45;13.68;;;8.82;;
5787;SDS011;2920;48.158;12.254;2024-03-22T04:43:10;12.43;;;8.73;;
5787;SDS011;2920;48.158;12.254;2024-03-22T04:45:36;12.38;;;8.43;;
5787;SDS011;2920;48.158;12.254;2024-03-22T04:48:01;12.05;;;7.68;;
5787;SDS011;2920;48.158;12.254;2024-03-22T04:50:28;12.68;;;8.02;;
5787;SDS011;2920;48.158;12.254;2024-03-22T04:52:54;10.23;;;6.97;;
5787;SDS011;2920;48.158;12.254;2024-03-22T04:55:20;11.02;;;7.50;;
5787;SDS011;2920;48.158;12.254;2024-03-22T04:57:45;10.25;;;8.07;;
5787;SDS011;2920;48.158;12.254;2024-03-22T05:00:10;8.93;;;6.80;;
5787;SDS011;2920;48.158;12.254;2024-03-22T05:02:36;11.00;;;7.35;;
5787;SDS011;2920;48.158;12.254;2024-03-22T05:05:01;14.32;;;7.13;;
5787;SDS011;2920;48.158;12.254;2024-03-22T05:07:27;9.85;;;6.80;;
5787;SDS011;2920;48.158;12.254;2024-03-22T05:09:52;10.82;;;7.85;;
5787;SDS011;2920;48.158;12.254;2024-03-22T05:12:17;10.30;;;7.25;;
5787;SDS011;2920;48.158;12.254;2024-03-22T05:14:43;10.05;;;6.75;;
5787;SDS011;2920;48.158;12.254;2024-03-22T05:17:08;10.32;;;7.47;;
5787;SDS011;2920;48.158;12.254;2024-03-22T05:19:34;9.10;;;6.63;;
5787;SDS011;2920;48.158;12.254;2024-03-22T05:21:59;10.57;;;7.30;;
5787;SDS011;2920;48.158;12.254;2024-03-22T05:24:25;14.88;;;7.70;;
5787;SDS011;2920;48.158;12.254;2024-03-22T05:26:50;11.80;;;7.10;;
5787;SDS011;2920;48.158;12.254;2024-03-22T05:29:16;17.17;;;7.82;;
5787;SDS011;2920;48.158;12.254;2024-03-22T05:31:48;12.00;;;8.05;;
5787;SDS011;2920;48.158;12.254;2024-03-22T05:34:16;13.75;;;7.97;;
5787;SDS011;2920;48.158;12.254;2024-03-22T05:36:42;11.57;;;7.82;;
5787;SDS011;2920;48.158;12.254;2024-03-22T05:39:07;13.60;;;8.40;;
5787;SDS011;2920;48.158;12.254;2024-03-22T05:41:33;14.70;;;8.57;;
5787;SDS011;2920;48.158;12.254;2024-03-22T05:43:58;16.40;;;9.45;;
5787;SDS011;2920;48.158;12.254;2024-03-22T05:46:23;22.23;;;9.75;;
5787;SDS011;2920;48.158;12.254;2024-03-22T05:48:49;16.98;;;9.50;;
5787;SDS011;2920;48.158;12.254;2024-03-22T05:51:15;26.92;;;9.40;;
5787;SDS011;2920;48.158;12.254;2024-03-22T05:53:41;17.52;;;8.75;;
5787;SDS011;2920;48.158;12.254;2024-03-22T05:56:07;18.55;;;9.80;;
5787;SDS011;2920;48.158;12.254;2024-03-22T05:58:32;18.45;;;9.88;;
5787;SDS011;2920;48.158;12.254;2024-03-22T06:00:58;17.70;;;10.05;;
5787;SDS011;2920;48.158;12.254;2024-03-22T06:03:23;21.77;;;11.40;;
5787;SDS011;2920;48.158;12.254;2024-03-22T06:05:49;18.77;;;10.55;;
5787;SDS011;2920;48.158;12.254;2024-03-22T06:08:14;17.50;;;10.77;;
5787;SDS011;2920;48.158;12.254;2024-03-22T06:10:44;20.08;;;11.57;;
5787;SDS011;2920;48.158;12.254;2024-03-22T06:13:10;19.98;;;10.73;;
5787;SDS011;2920;48.158;12.254;2024-03-22T06:15:35;19.58;;;11.05;;
5787;SDS011;2920;48.158;12.254;2024-03-22T06:18:00;19.13;;;11.48;;
5787;SDS011;2920;48.158;12.254;2024-03-22T06:20:26;22.77;;;12.80;;
5787;SDS011;2920;48.158;12.254;2024-03-22T06:22:51;21.85;;;12.18;;
5787;SDS011;2920;48.158;12.254;2024-03-22T06:25:16;18.88;;;11.57;;
5787;SDS011;2920;48.158;12.254;2024-03-22T06:27:42;18.85;;;11.52;;
5787;SDS011;2920;48.158;12.254;2024-03-22T06:30:07;21.95;;;11.88;;
5787;SDS011;2920;48.158;12.254;2024-03-22T06:32:33;22.15;;;12.68;;
5787;SDS011;2920;48.158;12.254;2024-03-22T06:34:58;24.77;;;12.13;;
5787;SDS011;2920;48.158;12.254;2024-03-22T06:37:23;21.67;;;11.80;;
5787;SDS011;2920;48.158;12.254;2024-03-22T06:39:49;23.88;;;12.13;;
5787;SDS011;2920;48.158;12.254;2024-03-22T06:42:14;24.83;;;13.70;;
5787;SDS011;2920;48.158;12.254;2024-03-22T06:44:39;19.65;;;11.65;;
5787;SDS011;2920;48.158;12.254;2024-03-22T06:47:05;22.35;;;11.75;;
5787;SDS011;2920;48.158;12.254;2024-03-22T06:49:30;23.10;;;12.55;;
5787;SDS011;2920;48.158;12.254;2024-03-22T06:51:56;21.83;;;12.52;;
5787;SDS011;2920;48.158;12.254;2024-03-22T06:54:21;22.48;;;11.70;;
5787;SDS011;2920;48.158;12.254;2024-03-22T06:56:47;26.02;;;11.70;;
5787;SDS011;2920;48.158;12.254;2024-03-22T06:59:12;25.67;;;12.55;;
5787;SDS011;2920;48.158;12.254;2024-03-22T07:01:37;24.50;;;12.52;;
5787;SDS011;2920;48.158;12.254;2024-03-22T07:04:03;21.42;;;12.13;;
5787;SDS011;2920;48.158;12.254;2024-03-22T07:06:28;22.17;;;11.93;;
5787;SDS011;2920;48.158;12.254;2024-03-22T07:08:53;23.00;;;13.18;;
5787;SDS011;2920;48.158;12.254;2024-03-22T07:11:19;22.33;;;12.02;;
5787;SDS011;2920;48.158;12.254;2024-03-22T07:13:44;22.00;;;12.52;;
5787;SDS011;2920;48.158;12.254;2024-03-22T07:16:09;20.70;;;12.50;;
5787;SDS011;2920;48.158;12.254;2024-03-22T07:18:35;21.83;;;12.38;;
5787;SDS011;2920;48.158;12.254;2024-03-22T07:21:00;22.05;;;12.13;;
5787;SDS011;2920;48.158;12.254;2024-03-22T07:23:27;22.63;;;11.23;;
5787;SDS011;2920;48.158;12.254;2024-03-22T07:25:52;20.80;;;11.70;;
5787;SDS011;2920;48.158;12.254;2024-03-22T07:28:18;25.40;;;13.95;;
5787;SDS011;2920;48.158;12.254;2024-03-22T07:30:43;20.27;;;11.95;;
5787;SDS011;2920;48.158;12.254;2024-03-22T07:33:10;20.33;;;11.95;;
5787;SDS011;2920;48.158;12.254;2024-03-22T07:35:38;18.40;;;10.95;;
5787;SDS011;2920;48.158;12.254;2024-03-22T07:38:03;19.38;;;11.02;;
5787;SDS011;2920;48.158;12.254;2024-03-22T07:40:29;21.00;;;11.10;;
5787;SDS011;2920;48.158;12.254;2024-03-22T07:42:54;18.48;;;10.77;;
5787;SDS011;2920;48.158;12.254;2024-03-22T07:45:20;20.50;;;11.77;;
5787;SDS011;2920;48.158;12.254;2024-03-22T07:47:45;20.10;;;11.48;;
5787;SDS011;2920;48.158;12.254;2024-03-22T07:50:10;18.33;;;10.60;;
5787;SDS011;2920;48.158;12.254;2024-03-22T07:52:36;18.42;;;11.40;;
5787;SDS011;2920;48.158;12.254;2024-03-22T07:55:01;19.85;;;10.18;;
5787;SDS011;2920;48.158;12.254;2024-03-22T07:57:28;19.52;;;10.45;;
5787;SDS011;2920;48.158;12.254;2024-03-22T07:59:56;16.60;;;10.65;;
5787;SDS011;2920;48.158;12.254;2024-03-22T08:02:22;17.60;;;10.95;;
5787;SDS011;2920;48.158;12.254;2024-03-22T08:04:47;15.60;;;9.75;;
5787;SDS011;2920;48.158;12.254;2024-03-22T08:07:13;16.50;;;9.23;;
5787;SDS011;2920;48.158;12.254;2024-03-22T08:09:39;15.18;;;9.02;;
5787;SDS011;2920;48.158;12.254;2024-03-22T08:12:05;12.50;;;8.27;;
5787;SDS011;2920;48.158;12.254;2024-03-22T08:14:31;10.73;;;8.02;;
5787;SDS011;2920;48.158;12.254;2024-03-22T08:16:56;15.73;;;8.98;;
5787;SDS011;2920;48.158;12.254;2024-03-22T08:19:22;12.63;;;8.88;;
5787;SDS011;2920;48.158;12.254;2024-03-22T08:21:47;11.85;;;7.63;;
5787;SDS011;2920;48.158;12.254;2024-03-22T08:24:12;11.73;;;7.10;;
5787;SDS011;2920;48.158;12.254;2024-03-22T08:26:38;10.80;;;6.78;;
5787;SDS011;2920;48.158;12.254;2024-03-22T08:29:03;14.32;;;7.80;;
5787;SDS011;2920;48.158;12.254;2024-03-22T08:31:28;11.82;;;7.68;;
5787;SDS011;2920;48.158;12.254;2024-03-22T08:33:54;11.90;;;7.25;;
5787;SDS011;2920;48.158;12.254;2024-03-22T08:36:21;12.23;;;7.63;;
5787;SDS011;2920;48.158;12.254;2024-03-22T08:38:46;10.32;;;7.05;;
5787;SDS011;2920;48.158;12.254;2024-03-22T08:41:12;12.38;;;7.38;;
5787;SDS011;2920;48.158;12.254;2024-03-22T08:43:37;11.15;;;7.32;;
5787;SDS011;2920;48.158;12.254;2024-03-22T08:46:02;11.18;;;6.57;;
5787;SDS011;2920;48.158;12.254;2024-03-22T08:48:28;12.88;;;6.90;;
5787;SDS011;2920;48.158;12.254;2024-03-22T08:50:54;10.00;;;7.07;;
5787;SDS011;2920;48.158;12.254;2024-03-22T08:53:19;10.48;;;7.28;;
5787;SDS011;2920;48.158;12.254;2024-03-22T08:55:47;10.02;;;6.57;;
5787;SDS011;2920;48.158;12.254;2024-03-22T08:58:13;14.88;;;7.43;;
5787;SDS011;2920;48.158;12.254;2024-03-22T09:00:40;12.88;;;7.65;;
5787;SDS011;2920;48.158;12.254;2024-03-22T09:03:06;9.32;;;6.55;;
5787;SDS011;2920;48.158;12.254;2024-03-22T09:05:31;8.75;;;6.40;;
5787;SDS011;2920;48.158;12.254;2024-03-22T09:07:58;10.85;;;7.30;;
5787;SDS011;2920;48.158;12.254;2024-03-22T09:10:23;10.40;;;6.95;;
5787;SDS011;2920;48.158;12.254;2024-03-22T09:12:49;8.07;;;5.40;;
5787;SDS011;2920;48.158;12.254;2024-03-22T09:15:14;9.27;;;6.00;;
5787;SDS011;2920;48.158;12.254;2024-03-22T09:17:39;8.80;;;5.90;;
5787;SDS011;2920;48.158;12.254;2024-03-22T09:20:05;9.93;;;5.88;;
5787;SDS011;2920;48.158;12.254;2024-03-22T09:22:32;9.02;;;5.82;;
5787;SDS011;2920;48.158;12.254;2024-03-22T09:24:57;11.13;;;6.15;;
5787;SDS011;2920;48.158;12.254;2024-03-22T09:27:23;11.32;;;5.75;;
5787;SDS011;2920;48.158;12.254;2024-03-22T09:29:48;9.48;;;6.40;;
5787;SDS011;2920;48.158;12.254;2024-03-22T09:32:14;9.52;;;5.70;;
5787;SDS011;2920;48.158;12.254;2024-03-22T09:34:39;9.50;;;6.35;;
5787;SDS011;2920;48.158;12.254;2024-03-22T09:37:05;9.40;;;6.22;;
5787;SDS011;2920;48.158;12.254;2024-03-22T09:39:31;9.55;;;6.90;;
5787;SDS011;2920;48.158;12.254;2024-03-22T09:41:57;8.63;;;6.38;;
5787;SDS011;2920;48.158;12.254;2024-03-22T09:44:24;10.15;;;6.50;;
5787;SDS011;2920;48.158;12.254;2024-03-22T09:46:52;9.65;;;6.70;;
5787;SDS011;2920;48.158;12.254;2024-03-22T09:49:18;12.20;;;6.65;;
5787;SDS011;2920;48.158;12.254;2024-03-22T09:51:43;10.10;;;7.28;;
5787;SDS011;2920;48.158;12.254;2024-03-22T09:54:09;8.73;;;5.65;;
5787;SDS011;2920;48.158;12.254;2024-03-22T09:56:38;7.13;;;5.40;;
5787;SDS011;2920;48.158;12.254;2024-03-22T09:59:05;10.07;;;5.57;;
5787;SDS011;2920;48.158;12.254;2024-03-22T10:01:30;12.00;;;6.30;;
5787;SDS011;2920;48.158;12.254;2024-03-22T10:03:56;11.02;;;5.93;;
5787;SDS011;2920;48.158;12.254;2024-03-22T10:06:22;11.90;;;6.57;;
5787;SDS011;2920;48.158;12.254;2024-03-22T10:08:47;9.27;;;6.60;;
5787;SDS011;2920;48.158;12.254;2024-03-22T10:11:13;7.72;;;5.68;;
5787;SDS011;2920;48.158;12.254;2024-03-22T10:13:38;8.70;;;6.20;;
5787;SDS011;2920;48.158;12.254;2024-03-22T10:16:03;12.20;;;7.35;;
5787;SDS011;2920;48.158;12.254;2024-03-22T10:18:29;9.88;;;5.95;;
5787;SDS011;2920;48.158;12.254;2024-03-22T10:21:01;8.95;;;6.28;;
5787;SDS011;2920;48.158;12.254;2024-03-22T10:23:29;8.45;;;6.05;;
5787;SDS011;2920;48.158;12.254;2024-03-22T10:25:56;12.35;;;6.20;;
5787;SDS011;2920;48.158;12.254;2024-03-22T10:28:22;11.25;;;7.25;;
5787;SDS011;2920;48.158;12.254;2024-03-22T10:30:48;11.40;;;6.70;;
5787;SDS011;2920;48.158;12.254;2024-03-22T10:33:15;12.23;;;6.32;;
5787;SDS011;2920;48.158;12.254;2024-03-22T10:35:41;12.48;;;6.00;;
5787;SDS011;2920;48.158;12.254;2024-03-22T10:38:08;12.75;;;6.85;;
5787;SDS011;2920;48.158;12.254;2024-03-22T10:40:36;10.65;;;6.40;;
5787;SDS011;2920;48.158;12.254;2024-03-22T10:43:01;10.43;;;6.65;;
5787;SDS011;2920;48.158;12.254;2024-03-22T10:45:27;12.35;;;7.22;;
5787;SDS011;2920;48.158;12.254;2024-03-22T10:47:54;15.25;;;6.93;;
5787;SDS011;2920;48.158;12.254;2024-03-22T10:50:20;11.57;;;6.10;;
5787;SDS011;2920;48.158;12.254;2024-03-22T10:52:50;10.27;;;6.38;;
5787;SDS011;2920;48.158;12.254;2024-03-22T10:55:19;11.25;;;6.65;;
5787;SDS011;2920;48.158;12.254;2024-03-22T10:57:48;12.77;;;7.28;;
5787;SDS011;2920;48.158;12.254;2024-03-22T11:00:14;10.40;;;6.60;;
5787;SDS011;2920;48.158;12.254;2024-03-22T11:02:42;13.02;;;6.60;;
5787;SDS011;2920;48.158;12.254;2024-03-22T11:05:15;11.68;;;6.40;;
5787;SDS011;2920;48.158;12.254;2024-03-22T11:07:43;8.90;;;5.85;;
5787;SDS011;2920;48.158;12.254;2024-03-22T11:10:09;9.70;;;6.43;;
5787;SDS011;2920;48.158;12.254;2024-03-22T11:12:37;9.57;;;6.13;;
5787;SDS011;2920;48.158;12.254;2024-03-22T11:15:03;11.88;;;7.30;;
5787;SDS011;2920;48.158;12.254;2024-03-22T11:17:28;10.73;;;6.38;;
5787;SDS011;2920;48.158;12.254;2024-03-22T11:19:54;8.27;;;6.22;;
5787;SDS011;2920;48.158;12.254;2024-03-22T11:22:19;7.57;;;5.50;;
5787;SDS011;2920;48.158;12.254;2024-03-22T11:24:45;9.35;;;6.25;;
5787;SDS011;2920;48.158;12.254;2024-03-22T11:27:11;7.65;;;4.97;;
5787;SDS011;2920;48.158;12.254;2024-03-22T11:29:36;12.73;;;6.38;;
5787;SDS011;2920;48.158;12.254;2024-03-22T11:32:06;8.63;;;6.00;;
5787;SDS011;2920;48.158;12.254;2024-03-22T11:34:35;9.32;;;5.95;;
5787;SDS011;2920;48.158;12.254;2024-03-22T11:37:01;9.70;;;5.35;;
5787;SDS011;2920;48.158;12.254;2024-03-22T11:39:27;9.68;;;5.75;;
5787;SDS011;2920;48.158;12.254;2024-03-22T11:41:52;8.73;;;6.22;;
5787;SDS011;2920;48.158;12.254;2024-03-22T11:44:18;10.43;;;6.18;;
5787;SDS011;2920;48.158;12.254;2024-03-22T11:46:43;8.85;;;6.38;;
5787;SDS011;2920;48.158;12.254;2024-03-22T11:49:09;8.57;;;5.47;;
5787;SDS011;2920;48.158;12.254;2024-03-22T11:51:35;10.88;;;5.72;;
5787;SDS011;2920;48.158;12.254;2024-03-22T11:54:02;10.80;;;5.82;;
5787;SDS011;2920;48.158;12.254;2024-03-22T11:56:28;8.25;;;5.75;;
5787;SDS011;2920;48.158;12.254;2024-03-22T11:59:00;9.13;;;5.75;;
5787;SDS011;2920;48.158;12.254;2024-03-22T12:01:26;7.72;;;5.28;;
5787;SDS011;2920;48.158;12.254;2024-03-22T12:03:51;8.38;;;6.63;;
5787;SDS011;2920;48.158;12.254;2024-03-22T12:06:17;11.57;;;5.35;;
5787;SDS011;2920;48.158;12.254;2024-03-22T12:08:42;8.27;;;4.85;;
5787;SDS011;2920;48.158;12.254;2024-03-22T12:11:08;8.82;;;5.35;;
5787;SDS011;2920;48.158;12.254;2024-03-22T12:13:35;10.38;;;5.43;;
5787;SDS011;2920;48.158;12.254;2024-03-22T12:16:00;8.45;;;5.60;;
5787;SDS011;2920;48.158;12.254;2024-03-22T12:18:26;9.48;;;5.80;;
5787;SDS011;2920;48.158;12.254;2024-03-22T12:20:52;7.47;;;5.35;;
5787;SDS011;2920;48.158;12.254;2024-03-22T12:23:17;6.32;;;4.43;;
5787;SDS011;2920;48.158;12.254;2024-03-22T12:25:43;8.32;;;4.75;;
5787;SDS011;2920;48.158;12.254;2024-03-22T12:28:08;8.35;;;5.35;;
5787;SDS011;2920;48.158;12.254;2024-03-22T12:30:34;8.20;;;4.93;;
5787;SDS011;2920;48.158;12.254;2024-03-22T12:32:59;6.38;;;4.40;;
5787;SDS011;2920;48.158;12.254;2024-03-22T12:35:26;9.25;;;5.28;;
5787;SDS011;2920;48.158;12.254;2024-03-22T12:37:51;5.95;;;4.25;;
5787;SDS011;2920;48.158;12.254;2024-03-22T12:40:16;6.55;;;4.70;;
5787;SDS011;2920;48.158;12.254;2024-03-22T12:42:42;7.13;;;4.20;;
5787;SDS011;2920;48.158;12.254;2024-03-22T12:45:07;7.20;;;4.75;;
5787;SDS011;2920;48.158;12.254;2024-03-22T12:47:33;6.93;;;4.65;;
5787;SDS011;2920;48.158;12.254;2024-03-22T12:49:58;6.40;;;4.60;;
5787;SDS011;2920;48.158;12.254;2024-03-22T12:52:23;9.45;;;5.32;;
5787;SDS011;2920;48.158;12.254;2024-03-22T12:54:49;8.75;;;5.18;;
5787;SDS011;2920;48.158;12.254;2024-03-22T12:57:14;7.50;;;3.95;;
5787;SDS011;2920;48.158;12.254;2024-03-22T12:59:39;6.85;;;4.72;;
5787;SDS011;2920;48.158;12.254;2024-03-22T13:02:04;7.88;;;4.38;;
5787;SDS011;2920;48.158;12.254;2024-03-22T13:04:30;6.70;;;4.47;;
5787;SDS011;2920;48.158;12.254;2024-03-22T13:06:56;7.90;;;5.18;;
5787;SDS011;2920;48.158;12.254;2024-03-22T13:09:21;4.95;;;3.53;;
5787;SDS011;2920;48.158;12.254;2024-03-22T13:11:47;7.95;;;4.20;;
5787;SDS011;2920;48.158;12.254;2024-03-22T13:14:13;7.50;;;4.65;;
5787;SDS011;2920;48.158;12.254;2024-03-22T13:16:39;5.43;;;3.92;;
5787;SDS011;2920;48.158;12.254;2024-03-22T13:19:05;6.13;;;4.53;;
5787;SDS011;2920;48.158;12.254;2024-03-22T13:21:33;7.05;;;4.05;;
5787;SDS011;2920;48.158;12.254;2024-03-22T13:23:58;7.68;;;5.05;;
5787;SDS011;2920;48.158;12.254;2024-03-22T13:26:24;6.93;;;4.22;;
5787;SDS011;2920;48.158;12.254;2024-03-22T13:28:49;5.57;;;4.47;;
5787;SDS011;2920;48.158;12.254;2024-03-22T13:31:15;8.80;;;5.00;;
5787;SDS011;2920;48.158;12.254;2024-03-22T13:33:41;10.18;;;4.63;;
5787;SDS011;2920;48.158;12.254;2024-03-22T13:36:06;8.13;;;5.20;;
5787;SDS011;2920;48.158;12.254;2024-03-22T13:38:32;7.55;;;4.95;;
5787;SDS011;2920;48.158;12.254;2024-03-22T13:40:58;7.13;;;4.68;;
5787;SDS011;2920;48.158;12.254;2024-03-22T13:43:25;5.95;;;4.43;;
5787;SDS011;2920;48.158;12.254;2024-03-22T13:45:52;6.45;;;4.75;;
5787;SDS011;2920;48.158;12.254;2024-03-22T13:48:19;7.53;;;4.60;;
5787;SDS011;2920;48.158;12.254;2024-03-22T13:50:49;6.45;;;4.28;;
5787;SDS011;2920;48.158;12.254;2024-03-22T13:53:14;6.38;;;4.53;;
5787;SDS011;2920;48.158;12.254;2024-03-22T13:55:40;5.40;;;3.33;;
5787;SDS011;2920;48.158;12.254;2024-03-22T13:58:05;5.22;;;3.30;;
5787;SDS011;2920;48.158;12.254;2024-03-22T14:00:31;5.05;;;3.22;;
5787;SDS011;2920;48.158;12.254;2024-03-22T14:02:56;5.45;;;4.00;;
5787;SDS011;2920;48.158;12.254;2024-03-22T14:05:21;5.32;;;3.58;;
5787;SDS011;2920;48.158;12.254;2024-03-22T14:07:49;3.55;;;2.78;;
5787;SDS011;2920;48.158;12.254;2024-03-22T14:10:14;7.20;;;4.07;;
5787;SDS011;2920;48.158;12.254;2024-03-22T14:12:41;6.32;;;3.80;;
5787;SDS011;2920;48.158;12.254;2024-03-22T14:15:07;6.80;;;4.20;;
5787;SDS011;2920;48.158;12.254;2024-03-22T14:17:32;5.93;;;4.03;;
5787;SDS011;2920;48.158;12.254;2024-03-22T14:19:58;5.38;;;3.85;;
5787;SDS011;2920;48.158;12.254;2024-03-22T14:22:23;5.10;;;3.22;;
5787;SDS011;2920;48.158;12.254;2024-03-22T14:24:48;5.97;;;3.65;;
5787;SDS011;2920;48.158;12.254;2024-03-22T14:27:14;5.95;;;3.20;;
5787;SDS011;2920;48.158;12.254;2024-03-22T14:29:39;5.20;;;3.75;;
5787;SDS011;2920;48.158;12.254;2024-03-22T14:32:04;6.03;;;3.72;;
5787;SDS011;2920;48.158;12.254;2024-03-22T14:34:32;4.03;;;3.10;;
5787;SDS011;2920;48.158;12.254;2024-03-22T14:36:57;4.45;;;3.53;;